createdAt,value
2018-03-29T00:00:05.980Z,0.90
2018-03-29T00:02:33.472Z,0.90
2018-03-29T00:05:01.743Z,0.70
2018-03-29T00:07:29.233Z,0.70
2018-03-29T00:09:56.745Z,0.80
2018-03-29T00:12:24.223Z,1.00
2018-03-29T00:14:51.710Z,1.20
2018-03-29T00:17:19.974Z,1.90
2018-03-29T00:19:47.455Z,2.27
2018-03-29T00:22:15.719Z,2.40
2018-03-29T00:24:43.194Z,2.30
2018-03-29T00:27:11.261Z,2.50
2018-03-29T00:29:39.253Z,2.23
2018-03-29T00:32:07.508Z,2.50
2018-03-29T00:34:35.009Z,2.73
2018-03-29T00:37:02.494Z,2.67
2018-03-29T00:39:29.993Z,2.50
2018-03-29T00:41:57.480Z,2.57
2018-03-29T00:44:25.783Z,2.77
2018-03-29T00:46:53.269Z,3.47
2018-03-29T00:49:20.753Z,3.10
2018-03-29T00:51:48.249Z,3.40
2018-03-29T00:54:16.499Z,3.13
2018-03-29T00:56:43.992Z,2.70
2018-03-29T00:59:12.279Z,2.60
2018-03-29T01:01:39.770Z,2.60
2018-03-29T01:04:07.266Z,2.70
2018-03-29T01:06:34.748Z,2.57
2018-03-29T01:09:03.054Z,2.40
2018-03-29T01:11:30.558Z,2.77
2018-03-29T01:13:58.044Z,3.00
2018-03-29T01:16:25.550Z,2.90
2018-03-29T01:18:53.064Z,3.00
2018-03-29T01:21:20.552Z,2.53
2018-03-29T01:23:48.817Z,2.60
2018-03-29T01:26:16.301Z,3.47
2018-03-29T01:28:43.794Z,3.30
2018-03-29T01:31:11.330Z,3.60
2018-03-29T01:33:38.831Z,3.67
2018-03-29T01:36:06.329Z,3.50
2018-03-29T01:38:33.803Z,3.47
2018-03-29T01:41:02.083Z,3.70
2018-03-29T01:43:29.567Z,3.40
2018-03-29T01:45:57.045Z,3.60
2018-03-29T01:48:24.551Z,4.23
2018-03-29T01:50:52.049Z,2.90
2018-03-29T01:53:20.309Z,2.50
2018-03-29T01:55:47.813Z,2.70
2018-03-29T01:58:15.311Z,1.90
2018-03-29T02:00:42.805Z,1.50
2018-03-29T02:03:11.049Z,1.33
2018-03-29T02:05:38.619Z,1.17
2018-03-29T02:08:06.119Z,0.63
2018-03-29T02:10:34.380Z,0.90
2018-03-29T02:13:01.884Z,0.80
2018-03-29T02:15:29.361Z,0.67
2018-03-29T02:17:56.874Z,0.70
2018-03-29T02:20:24.360Z,1.00
2018-03-29T02:22:52.626Z,0.80
2018-03-29T02:25:20.870Z,0.90
2018-03-29T02:27:48.341Z,0.97
2018-03-29T02:30:15.866Z,0.80
2018-03-29T02:32:43.355Z,1.40
2018-03-29T02:35:10.851Z,1.00
2018-03-29T02:37:38.336Z,1.13
2018-03-29T02:40:05.856Z,0.90
2018-03-29T02:42:33.393Z,0.80
2018-03-29T02:45:01.655Z,1.10
2018-03-29T02:47:29.108Z,1.00
2018-03-29T02:49:56.599Z,0.90
2018-03-29T02:52:24.114Z,0.80
2018-03-29T02:54:51.600Z,0.50
2018-03-29T02:57:19.082Z,0.70
2018-03-29T02:59:46.593Z,0.60
2018-03-29T03:02:14.082Z,0.60
2018-03-29T03:04:41.588Z,0.90
2018-03-29T03:07:09.077Z,0.63
2018-03-29T03:09:36.564Z,0.83
2018-03-29T03:12:04.082Z,0.60
2018-03-29T03:14:31.571Z,0.70
2018-03-29T03:16:59.074Z,0.70
2018-03-29T03:19:26.570Z,0.80
2018-03-29T03:21:54.049Z,0.70
2018-03-29T03:24:21.559Z,0.90
2018-03-29T03:26:49.034Z,0.70
2018-03-29T03:29:16.528Z,0.80
2018-03-29T03:31:44.019Z,0.70
2018-03-29T03:34:11.627Z,0.80
2018-03-29T03:36:39.107Z,0.40
2018-03-29T03:39:06.609Z,0.70
2018-03-29T03:41:34.873Z,0.60
2018-03-29T03:44:02.363Z,0.70
2018-03-29T03:46:30.644Z,0.67
2018-03-29T03:48:58.917Z,0.60
2018-03-29T03:51:27.180Z,0.50
2018-03-29T03:53:54.687Z,0.73
2018-03-29T03:56:22.202Z,0.77
2018-03-29T03:58:49.706Z,0.50
2018-03-29T04:01:17.201Z,0.70
2018-03-29T04:03:45.473Z,0.80
2018-03-29T04:06:12.959Z,1.00
2018-03-29T04:08:40.445Z,0.73
2018-03-29T04:11:07.950Z,0.70
2018-03-29T04:13:35.446Z,1.00
2018-03-29T04:16:02.961Z,0.90
2018-03-29T04:18:30.445Z,0.90
2018-03-29T04:20:57.929Z,0.90
2018-03-29T04:23:26.208Z,0.90
2018-03-29T04:25:53.700Z,0.90
2018-03-29T04:28:21.214Z,0.80
2018-03-29T04:30:48.701Z,0.90
2018-03-29T04:33:16.224Z,0.90
2018-03-29T04:35:43.718Z,1.10
2018-03-29T04:38:11.216Z,1.00
2018-03-29T04:40:39.500Z,1.10
2018-03-29T04:43:06.981Z,1.10
2018-03-29T04:45:34.491Z,0.90
2018-03-29T04:48:01.990Z,0.93
2018-03-29T04:50:29.490Z,0.93
2018-03-29T04:52:56.998Z,0.90
2018-03-29T04:55:24.489Z,1.03
2018-03-29T04:57:52.011Z,0.90
2018-03-29T05:00:19.518Z,0.83
2018-03-29T05:02:47.763Z,0.90
2018-03-29T05:05:15.269Z,1.10
2018-03-29T05:07:42.756Z,0.97
2018-03-29T05:10:10.250Z,1.00
2018-03-29T05:12:37.747Z,0.90
2018-03-29T05:15:06.002Z,1.00
2018-03-29T05:17:33.578Z,1.00
2018-03-29T05:20:01.088Z,1.10
2018-03-29T05:22:28.582Z,1.00
2018-03-29T05:24:56.065Z,0.80
2018-03-29T05:27:26.426Z,0.90
2018-03-29T05:29:53.911Z,0.90
2018-03-29T05:32:21.420Z,0.80
2018-03-29T05:34:48.921Z,1.17
2018-03-29T05:37:16.413Z,1.20
2018-03-29T05:39:43.925Z,1.20
2018-03-29T05:42:12.196Z,0.97
2018-03-29T05:44:40.471Z,1.50
2018-03-29T05:47:07.969Z,1.60
2018-03-29T05:49:35.449Z,1.43
2018-03-29T05:52:02.968Z,1.33
2018-03-29T05:54:31.234Z,1.43
2018-03-29T05:56:58.733Z,1.50
2018-03-29T05:59:26.243Z,1.30
2018-03-29T06:01:53.766Z,1.40
2018-03-29T06:04:21.271Z,2.00
2018-03-29T06:06:48.771Z,1.97
2018-03-29T06:09:16.278Z,1.73
2018-03-29T06:11:43.802Z,1.20
2018-03-29T06:14:11.310Z,1.30
2018-03-29T06:16:44.384Z,1.70
2018-03-29T06:19:11.968Z,1.62
2018-03-29T06:21:39.772Z,1.30
2018-03-29T06:24:07.361Z,1.30
2018-03-29T06:26:34.852Z,1.10
2018-03-29T06:29:02.380Z,1.10
2018-03-29T06:31:29.866Z,0.90
2018-03-29T06:33:57.375Z,1.10
2018-03-29T06:36:25.286Z,1.00
2018-03-29T06:38:52.784Z,0.90
2018-03-29T06:41:21.078Z,1.10
2018-03-29T06:43:48.611Z,1.00
2018-03-29T06:46:16.095Z,1.00
2018-03-29T06:48:43.588Z,0.87
2018-03-29T06:51:11.858Z,1.00
2018-03-29T06:53:39.357Z,0.80
2018-03-29T06:56:06.847Z,0.90
2018-03-29T06:58:34.389Z,0.90
2018-03-29T07:01:01.992Z,0.87
2018-03-29T07:03:29.504Z,1.03
2018-03-29T07:05:56.994Z,0.97
2018-03-29T07:08:24.491Z,0.67
2018-03-29T07:10:52.010Z,1.10
2018-03-29T07:13:19.507Z,1.30
2018-03-29T07:15:47.029Z,1.20
2018-03-29T07:18:14.541Z,1.20
2018-03-29T07:20:42.033Z,1.00
2018-03-29T07:23:10.497Z,0.70
2018-03-29T07:25:38.074Z,0.50
2018-03-29T07:28:05.599Z,0.47
2018-03-29T07:30:33.860Z,0.67
2018-03-29T07:33:01.359Z,0.50
2018-03-29T07:35:28.854Z,0.63
2018-03-29T07:37:56.382Z,0.63
2018-03-29T07:40:23.891Z,0.80
2018-03-29T07:42:51.375Z,0.70
2018-03-29T07:45:18.886Z,0.67
2018-03-29T07:47:46.377Z,0.70
2018-03-29T07:50:13.897Z,0.63
2018-03-29T07:52:41.388Z,0.57
2018-03-29T07:55:08.888Z,0.60
2018-03-29T07:57:36.389Z,0.60
2018-03-29T08:00:03.907Z,0.70
2018-03-29T08:02:31.405Z,0.80
2018-03-29T08:04:58.892Z,0.80
2018-03-29T08:07:26.391Z,0.87
2018-03-29T08:09:53.884Z,0.70
2018-03-29T08:12:21.406Z,0.70
2018-03-29T08:14:49.676Z,0.90
2018-03-29T08:17:17.186Z,0.60
2018-03-29T08:19:44.698Z,0.70
2018-03-29T08:22:12.490Z,0.60
2018-03-29T08:24:39.967Z,0.70
2018-03-29T08:27:07.501Z,0.63
2018-03-29T08:29:35.748Z,0.60
2018-03-29T08:32:03.258Z,0.70
2018-03-29T08:34:30.751Z,0.60
2018-03-29T08:36:58.253Z,0.60
2018-03-29T08:39:25.744Z,0.73
2018-03-29T08:41:53.229Z,0.57
2018-03-29T08:44:20.750Z,0.47
2018-03-29T08:46:48.241Z,0.43
2018-03-29T08:49:15.763Z,0.30
2018-03-29T08:51:43.259Z,0.40
2018-03-29T08:54:11.512Z,0.40
2018-03-29T08:56:39.018Z,0.60
2018-03-29T08:59:06.516Z,0.63
2018-03-29T09:01:34.033Z,0.20
2018-03-29T09:04:01.521Z,0.50
2018-03-29T09:06:29.024Z,0.40
2018-03-29T09:08:56.531Z,0.60
2018-03-29T09:11:24.027Z,0.50
2018-03-29T09:13:51.545Z,0.60
2018-03-29T09:16:19.038Z,0.83
2018-03-29T09:18:46.553Z,0.60
2018-03-29T09:21:14.063Z,0.70
2018-03-29T09:23:41.566Z,0.60
2018-03-29T09:26:09.096Z,0.70
2018-03-29T09:28:36.591Z,0.80
2018-03-29T09:31:04.094Z,0.50
2018-03-29T09:33:31.605Z,0.70
2018-03-29T09:35:59.103Z,0.70
2018-03-29T09:38:27.379Z,0.80
2018-03-29T09:40:55.653Z,0.70
2018-03-29T09:43:23.148Z,0.67
2018-03-29T09:45:50.672Z,0.77
2018-03-29T09:48:18.166Z,0.90
2018-03-29T09:50:45.678Z,0.80
2018-03-29T09:53:13.178Z,0.90
2018-03-29T09:55:41.444Z,0.80
2018-03-29T09:58:08.968Z,0.80
2018-03-29T10:00:36.474Z,0.70
2018-03-29T10:03:09.767Z,0.90
2018-03-29T10:05:38.055Z,0.90
2018-03-29T10:08:05.584Z,0.70
2018-03-29T10:10:33.095Z,0.80
2018-03-29T10:13:00.628Z,0.80
2018-03-29T10:15:28.130Z,0.80
2018-03-29T10:17:55.620Z,0.90
2018-03-29T10:20:23.129Z,1.00
2018-03-29T10:22:50.618Z,1.00
2018-03-29T10:25:18.126Z,0.93
2018-03-29T10:27:45.610Z,1.00
2018-03-29T10:30:13.192Z,0.90
2018-03-29T10:32:41.420Z,0.70
2018-03-29T10:35:08.918Z,0.93
2018-03-29T10:37:36.417Z,1.10
2018-03-29T10:40:03.950Z,0.73
2018-03-29T10:42:32.247Z,0.67
2018-03-29T10:44:59.763Z,0.70
2018-03-29T10:47:27.304Z,0.70
2018-03-29T10:49:54.803Z,0.50
2018-03-29T10:52:22.329Z,0.87
2018-03-29T10:54:49.813Z,0.60
2018-03-29T10:57:17.309Z,0.70
2018-03-29T10:59:45.601Z,0.50
2018-03-29T11:02:13.870Z,0.60
2018-03-29T11:04:41.396Z,0.50
2018-03-29T11:07:09.694Z,0.60
2018-03-29T11:09:37.230Z,0.70
2018-03-29T11:12:04.758Z,0.70
2018-03-29T11:14:32.276Z,0.73
2018-03-29T11:16:59.801Z,0.80
2018-03-29T11:19:27.316Z,0.67
2018-03-29T11:21:54.855Z,0.80
2018-03-29T11:24:22.360Z,0.70
2018-03-29T11:26:50.667Z,0.80
2018-03-29T11:29:18.219Z,0.80
2018-03-29T11:31:45.719Z,0.80
2018-03-29T11:34:13.271Z,1.10
2018-03-29T11:36:40.781Z,0.80
2018-03-29T11:39:08.299Z,0.97
2018-03-29T11:41:35.806Z,0.70
2018-03-29T11:44:03.363Z,1.10
2018-03-29T11:46:30.885Z,0.90
2018-03-29T11:48:58.394Z,0.60
2018-03-29T11:51:25.944Z,0.70
2018-03-29T11:53:53.437Z,0.50
2018-03-29T11:56:20.931Z,0.70
2018-03-29T11:58:48.446Z,0.73
2018-03-29T12:01:15.962Z,0.67
2018-03-29T12:03:43.472Z,0.57
2018-03-29T12:06:10.996Z,0.70
2018-03-29T12:08:38.498Z,0.73
2018-03-29T12:11:06.028Z,0.63
2018-03-29T12:13:33.519Z,0.80
2018-03-29T12:16:01.075Z,0.83
2018-03-29T12:18:28.559Z,0.70
2018-03-29T12:20:56.054Z,0.60
2018-03-29T12:23:23.572Z,0.70
2018-03-29T12:25:51.064Z,0.80
2018-03-29T12:28:18.571Z,0.70
2018-03-29T12:30:46.110Z,0.77
2018-03-29T12:33:13.696Z,0.80
2018-03-29T12:35:41.249Z,0.97
2018-03-29T12:38:08.755Z,0.70
2018-03-29T12:40:36.287Z,0.73
2018-03-29T12:43:03.774Z,0.90
2018-03-29T12:45:31.274Z,0.70
2018-03-29T12:47:59.555Z,0.90
2018-03-29T12:50:27.895Z,0.80
2018-03-29T12:52:55.381Z,0.90
2018-03-29T12:55:34.612Z,0.60
2018-03-29T12:58:08.068Z,0.73
2018-03-29T13:00:35.559Z,0.90
2018-03-29T13:03:03.068Z,1.00
2018-03-29T13:05:31.328Z,1.10
2018-03-29T13:07:59.598Z,3.40
2018-03-29T13:10:27.119Z,0.63
2018-03-29T13:12:54.628Z,2.47
2018-03-29T13:15:22.142Z,0.70
2018-03-29T13:17:49.636Z,0.70
2018-03-29T13:20:17.182Z,2.60
2018-03-29T13:22:44.679Z,1.17
2018-03-29T13:25:12.203Z,0.60
2018-03-29T13:27:39.722Z,0.90
2018-03-29T13:30:08.000Z,0.63
2018-03-29T13:32:36.290Z,0.80
2018-03-29T13:35:04.557Z,1.20
2018-03-29T13:37:32.073Z,0.80
2018-03-29T13:39:59.585Z,0.70
2018-03-29T13:42:27.861Z,0.97
2018-03-29T13:44:56.154Z,0.80
2018-03-29T13:47:24.403Z,1.03
2018-03-29T13:49:51.938Z,1.00
2018-03-29T13:52:19.450Z,0.90
2018-03-29T13:54:48.015Z,0.70
2018-03-29T13:57:15.566Z,0.90
2018-03-29T13:59:43.072Z,0.90
2018-03-29T14:02:11.412Z,0.90
2018-03-29T14:04:38.922Z,0.80
2018-03-29T14:07:07.220Z,0.90
2018-03-29T14:09:34.710Z,0.90
2018-03-29T14:12:02.207Z,0.97
2018-03-29T14:14:29.716Z,0.80
2018-03-29T14:16:57.207Z,1.20
2018-03-29T14:19:24.725Z,0.80
2018-03-29T14:21:52.216Z,0.97
2018-03-29T14:24:19.741Z,1.00
2018-03-29T14:26:47.995Z,0.73
2018-03-29T14:29:15.496Z,1.00
2018-03-29T14:31:43.053Z,0.70
2018-03-29T14:34:11.320Z,0.80
2018-03-29T14:36:39.743Z,0.60
2018-03-29T14:39:07.336Z,0.80
2018-03-29T14:41:34.857Z,0.87
2018-03-29T14:44:03.136Z,1.00
2018-03-29T14:46:30.641Z,0.90
2018-03-29T14:48:58.179Z,1.00
2018-03-29T14:51:25.693Z,0.77
2018-03-29T14:53:53.197Z,0.90
2018-03-29T14:56:20.715Z,0.70
2018-03-29T14:58:48.212Z,0.90
2018-03-29T15:01:15.753Z,0.90
2018-03-29T15:03:43.253Z,0.73
2018-03-29T15:06:10.800Z,0.80
2018-03-29T15:08:38.314Z,0.80
2018-03-29T15:11:05.818Z,0.73
2018-03-29T15:13:33.352Z,0.70
2018-03-29T15:16:00.820Z,0.70
2018-03-29T15:18:28.325Z,0.77
2018-03-29T15:20:55.858Z,0.50
2018-03-29T15:23:23.358Z,0.50
2018-03-29T15:25:50.867Z,0.50
2018-03-29T15:28:19.175Z,0.30
2018-03-29T15:30:47.432Z,0.40
2018-03-29T15:33:14.984Z,0.50
2018-03-29T15:35:42.515Z,0.37
2018-03-29T15:38:10.017Z,0.50
2018-03-29T15:40:37.552Z,0.50
2018-03-29T15:43:05.135Z,0.30
2018-03-29T15:45:32.647Z,0.30
2018-03-29T15:48:00.157Z,0.57
2018-03-29T15:50:27.715Z,0.50
2018-03-29T15:52:55.207Z,0.70
2018-03-29T15:55:22.724Z,0.87
2018-03-29T15:57:50.274Z,0.60
2018-03-29T16:00:17.798Z,0.63
2018-03-29T16:02:45.296Z,0.67
2018-03-29T16:05:12.794Z,1.23
2018-03-29T16:07:40.379Z,1.00
2018-03-29T16:10:07.870Z,0.80
2018-03-29T16:12:36.204Z,0.70
2018-03-29T16:15:04.438Z,0.80
2018-03-29T16:17:32.708Z,0.70
2018-03-29T16:20:01.034Z,0.63
2018-03-29T16:22:28.522Z,0.67
2018-03-29T16:24:57.053Z,0.57
2018-03-29T16:27:25.321Z,0.80
2018-03-29T16:29:52.905Z,0.60
2018-03-29T16:32:20.421Z,0.90
2018-03-29T16:34:47.951Z,0.80
2018-03-29T16:37:15.531Z,0.60
2018-03-29T16:39:43.063Z,0.70
2018-03-29T16:42:10.567Z,0.60
2018-03-29T16:44:38.096Z,0.70
2018-03-29T16:47:05.679Z,1.00
2018-03-29T16:49:33.203Z,1.00
2018-03-29T16:52:00.787Z,0.80
2018-03-29T16:54:28.344Z,1.07
2018-03-29T16:56:55.973Z,0.97
2018-03-29T16:59:23.541Z,1.10
2018-03-29T17:01:51.866Z,1.13
2018-03-29T17:04:19.416Z,0.90
2018-03-29T17:06:46.980Z,1.10
2018-03-29T17:09:14.504Z,1.17
2018-03-29T17:11:42.046Z,0.90
2018-03-29T17:14:09.567Z,0.70
2018-03-29T17:16:37.128Z,0.60
2018-03-29T17:19:04.664Z,0.70
2018-03-29T17:21:32.172Z,0.90
2018-03-29T17:23:59.684Z,0.90
2018-03-29T17:26:27.184Z,0.87
2018-03-29T17:28:54.729Z,1.00
2018-03-29T17:31:22.295Z,0.90
2018-03-29T17:33:49.864Z,1.20
2018-03-29T17:36:17.504Z,1.13
2018-03-29T17:38:45.179Z,0.80
2018-03-29T17:41:12.844Z,1.20
2018-03-29T17:43:40.424Z,1.20
2018-03-29T17:46:08.716Z,1.17
2018-03-29T17:48:36.257Z,1.00
2018-03-29T17:51:03.763Z,1.20
2018-03-29T17:53:31.265Z,1.30
2018-03-29T17:55:58.755Z,1.40
2018-03-29T17:58:26.271Z,1.40
2018-03-29T18:00:53.757Z,1.27
2018-03-29T18:03:21.269Z,1.43
2018-03-29T18:05:48.911Z,1.40
2018-03-29T18:08:16.431Z,1.60
2018-03-29T18:10:44.036Z,1.50
2018-03-29T18:13:11.628Z,3.20
2018-03-29T18:15:39.195Z,1.97
2018-03-29T18:18:06.779Z,1.47
2018-03-29T18:20:34.277Z,1.80
2018-03-29T18:23:01.815Z,1.60
2018-03-29T18:25:29.341Z,1.10
2018-03-29T18:27:57.620Z,1.20
2018-03-29T18:30:25.952Z,1.20
2018-03-29T18:32:53.481Z,1.90
2018-03-29T18:35:20.988Z,1.70
2018-03-29T18:37:48.550Z,1.60
2018-03-29T18:40:16.016Z,1.70
2018-03-29T18:42:43.531Z,2.03
2018-03-29T18:45:11.043Z,1.60
2018-03-29T18:47:38.587Z,2.10
2018-03-29T18:50:06.130Z,1.63
2018-03-29T18:52:33.621Z,1.70
2018-03-29T18:55:01.130Z,1.60
2018-03-29T18:57:29.410Z,1.37
2018-03-29T18:59:56.961Z,1.40
2018-03-29T19:02:24.502Z,1.53
2018-03-29T19:04:52.753Z,1.80
2018-03-29T19:07:20.282Z,1.60
2018-03-29T19:09:47.777Z,1.83
2018-03-29T19:12:15.275Z,1.97
2018-03-29T19:14:42.817Z,3.10
2018-03-29T19:17:10.304Z,2.97
2018-03-29T19:19:37.819Z,2.20
2018-03-29T19:22:05.334Z,1.70
2018-03-29T19:24:32.826Z,2.00
2018-03-29T19:27:00.349Z,4.00
2018-03-29T19:29:27.905Z,5.23
2018-03-29T19:31:55.416Z,4.67
2018-03-29T19:34:22.908Z,2.50
2018-03-29T19:36:50.412Z,2.30
2018-03-29T19:39:17.926Z,2.10
2018-03-29T19:41:45.424Z,1.93
2018-03-29T19:44:12.946Z,1.90
2018-03-29T19:46:40.466Z,1.83
2018-03-29T19:49:07.987Z,1.57
2018-03-29T19:51:35.488Z,2.37
2018-03-29T19:54:02.994Z,2.50
2018-03-29T19:56:30.530Z,2.37
2018-03-29T19:58:58.005Z,2.40
2018-03-29T20:01:25.523Z,2.23
2018-03-29T20:03:53.021Z,2.70
2018-03-29T20:06:21.299Z,2.40
2018-03-29T20:08:48.833Z,2.13
2018-03-29T20:11:16.388Z,2.20
2018-03-29T20:13:43.942Z,2.10
2018-03-29T20:16:11.451Z,2.30
2018-03-29T20:18:38.979Z,2.40
2018-03-29T20:21:06.483Z,2.50
2018-03-29T20:23:33.997Z,2.23
2018-03-29T20:26:01.530Z,2.93
2018-03-29T20:28:29.810Z,2.37
2018-03-29T20:30:58.166Z,3.60
2018-03-29T20:33:25.673Z,4.43
2018-03-29T20:35:53.179Z,4.67
2018-03-29T20:38:20.672Z,3.97
2018-03-29T20:40:48.178Z,4.10
2018-03-29T20:43:15.682Z,4.10
2018-03-29T20:45:43.167Z,4.10
2018-03-29T20:48:11.434Z,3.70
2018-03-29T20:50:39.696Z,3.77
2018-03-29T20:53:07.191Z,2.80
2018-03-29T20:55:34.718Z,2.60
2018-03-29T20:58:02.226Z,2.27
2018-03-29T21:00:29.752Z,2.40
2018-03-29T21:02:57.255Z,2.73
2018-03-29T21:05:24.805Z,3.37
2018-03-29T21:07:52.306Z,5.03
2018-03-29T21:10:19.829Z,4.13
2018-03-29T21:12:48.106Z,3.77
2018-03-29T21:15:16.374Z,4.87
2018-03-29T21:17:43.895Z,4.70
2018-03-29T21:20:11.406Z,4.77
2018-03-29T21:22:39.675Z,4.53
2018-03-29T21:25:07.193Z,4.67
2018-03-29T21:27:34.713Z,4.37
2018-03-29T21:30:03.013Z,4.03
2018-03-29T21:32:31.303Z,3.83
2018-03-29T21:34:58.795Z,3.43
2018-03-29T21:37:27.091Z,3.30
2018-03-29T21:39:55.384Z,3.73
2018-03-29T21:42:22.885Z,3.87
2018-03-29T21:44:50.439Z,3.40
2018-03-29T21:47:18.710Z,3.50
2018-03-29T21:49:46.225Z,3.40
2018-03-29T21:52:14.442Z,2.78
2018-03-29T21:54:41.935Z,2.97
2018-03-29T21:57:09.443Z,2.90
2018-03-29T21:59:36.941Z,2.83
2018-03-29T22:02:04.490Z,3.00
2018-03-29T22:04:31.999Z,3.00
2018-03-29T22:06:59.566Z,2.90
2018-03-29T22:09:27.810Z,1.90
2018-03-29T22:11:56.133Z,2.07
2018-03-29T22:14:23.675Z,1.87
2018-03-29T22:16:51.174Z,1.83
2018-03-29T22:19:18.683Z,2.07
2018-03-29T22:21:46.196Z,1.90
2018-03-29T22:24:13.722Z,1.87
2018-03-29T22:26:41.214Z,2.07
2018-03-29T22:29:08.774Z,2.47
2018-03-29T22:31:36.298Z,2.40
2018-03-29T22:34:04.641Z,2.87
2018-03-29T22:36:32.098Z,2.80
2018-03-29T22:38:59.609Z,2.80
2018-03-29T22:41:27.131Z,2.50
2018-03-29T22:43:55.391Z,2.20
2018-03-29T22:46:22.882Z,1.93
2018-03-29T22:48:50.377Z,2.60
2018-03-29T22:51:18.647Z,2.50
2018-03-29T22:53:46.150Z,2.20
2018-03-29T22:56:13.642Z,2.20
2018-03-29T22:58:41.152Z,2.37
2018-03-29T23:01:09.418Z,2.47
2018-03-29T23:03:37.806Z,2.10
2018-03-29T23:06:06.089Z,3.00
2018-03-29T23:08:33.594Z,2.93
2018-03-29T23:11:01.087Z,3.23
2018-03-29T23:13:28.600Z,3.07
2018-03-29T23:15:56.108Z,3.63
2018-03-29T23:18:23.602Z,4.57
2018-03-29T23:20:51.088Z,4.03
2018-03-29T23:23:18.601Z,3.87
2018-03-29T23:25:46.090Z,3.30
2018-03-29T23:28:13.577Z,2.50
2018-03-29T23:30:41.102Z,2.07
2018-03-29T23:33:08.601Z,2.80
2018-03-29T23:35:36.107Z,2.30
2018-03-29T23:38:03.610Z,2.63
2018-03-29T23:40:31.126Z,2.00
2018-03-29T23:42:58.638Z,1.93
2018-03-29T23:45:26.151Z,2.00
2018-03-29T23:47:53.651Z,2.10
2018-03-29T23:50:21.151Z,1.90
2018-03-29T23:52:48.676Z,1.60
2018-03-29T23:55:16.171Z,1.40
2018-03-29T23:57:43.665Z,1.50
